createdAt,value
2018-08-23T00:01:38.663Z,11.90
2018-08-23T00:04:08.957Z,16.20
2018-08-23T00:06:40.729Z,13.73
2018-08-23T00:09:09.869Z,12.20
2018-08-23T00:11:45.188Z,11.50
2018-08-23T00:14:15.170Z,12.63
2018-08-23T00:16:45.328Z,13.73
2018-08-23T00:19:14.798Z,15.83
2018-08-23T00:21:47.937Z,11.33
2018-08-23T00:24:21.281Z,11.10
2018-08-23T00:26:53.535Z,11.07
2018-08-23T00:29:29.016Z,14.17
2018-08-23T00:32:01.407Z,11.33
2018-08-23T00:34:31.808Z,12.60
2018-08-23T00:37:02.246Z,11.07
2018-08-23T00:39:31.416Z,15.10
2018-08-23T00:42:05.550Z,11.97
2018-08-23T00:45:01.701Z,13.25
2018-08-23T00:47:33.053Z,13.53
2018-08-23T00:50:02.174Z,11.27
2018-08-23T00:52:43.559Z,14.25
2018-08-23T00:55:22.839Z,12.37
2018-08-23T00:57:52.837Z,11.67
2018-08-23T01:00:24.094Z,15.08
2018-08-23T01:02:58.018Z,12.27
2018-08-23T01:05:32.613Z,11.97
2018-08-23T01:08:01.759Z,11.73
2018-08-23T01:10:30.891Z,12.33
2018-08-23T01:13:02.074Z,13.80
2018-08-23T01:15:32.253Z,12.70
2018-08-23T01:18:16.262Z,15.03
2018-08-23T01:20:46.569Z,13.40
2018-08-23T01:23:15.756Z,14.00
2018-08-23T01:25:45.974Z,13.08
2018-08-23T01:28:15.126Z,12.63
2018-08-23T01:30:44.891Z,12.13
2018-08-23T01:33:15.890Z,13.10
2018-08-23T01:35:46.147Z,12.47
2018-08-23T01:38:15.770Z,12.70
2018-08-23T01:40:45.167Z,15.37
2018-08-23T01:43:14.325Z,12.43
2018-08-23T01:45:43.470Z,11.60
2018-08-23T01:48:12.602Z,11.37
2018-08-23T01:50:41.734Z,13.77
2018-08-23T01:53:10.918Z,14.27
2018-08-23T01:55:40.054Z,13.40
2018-08-23T01:58:09.215Z,10.95
2018-08-23T02:00:38.362Z,13.43
2018-08-23T02:03:07.505Z,12.60
2018-08-23T02:05:38.602Z,10.47
2018-08-23T02:08:07.759Z,12.90
2018-08-23T02:10:36.902Z,12.20
2018-08-23T02:13:10.593Z,13.03
2018-08-23T02:15:45.102Z,13.37
2018-08-23T02:18:14.250Z,11.53
2018-08-23T02:20:43.385Z,11.97
2018-08-23T02:23:12.534Z,11.27
2018-08-23T02:25:41.661Z,12.23
2018-08-23T02:28:11.919Z,12.17
2018-08-23T02:30:51.450Z,11.50
2018-08-23T02:33:20.599Z,13.23
2018-08-23T02:36:22.296Z,14.43
2018-08-23T02:39:09.991Z,10.75
2018-08-23T02:41:41.875Z,14.20
2018-08-23T02:44:11.028Z,11.57
2018-08-23T02:46:40.165Z,12.43
2018-08-23T02:49:09.309Z,10.95
2018-08-23T02:51:43.697Z,13.60
2018-08-23T02:54:13.937Z,11.65
2018-08-23T02:56:59.335Z,12.67
2018-08-23T02:59:29.132Z,14.03
2018-08-23T03:01:58.274Z,12.50
2018-08-23T03:04:28.863Z,12.47
2018-08-23T03:06:59.382Z,12.20
2018-08-23T03:09:38.850Z,13.00
2018-08-23T03:12:12.426Z,15.50
2018-08-23T03:14:41.930Z,11.37
2018-08-23T03:17:29.283Z,11.57
2018-08-23T03:20:17.185Z,11.47
2018-08-23T03:22:48.929Z,12.70
2018-08-23T03:25:19.283Z,11.57
2018-08-23T03:27:48.426Z,14.07
2018-08-23T03:30:18.531Z,14.10
2018-08-23T03:32:48.366Z,14.18
2018-08-23T03:35:19.293Z,13.32
2018-08-23T03:37:48.422Z,13.87
2018-08-23T03:40:18.032Z,14.53
2018-08-23T03:42:48.419Z,13.23
2018-08-23T03:45:23.975Z,11.80
2018-08-23T03:47:54.341Z,14.25
2018-08-23T03:50:23.529Z,13.60
2018-08-23T03:52:54.306Z,12.53
2018-08-23T03:55:26.507Z,12.33
2018-08-23T03:58:01.780Z,9.87
2018-08-23T04:00:36.322Z,14.80
2018-08-23T04:03:14.407Z,12.18
2018-08-23T04:05:43.557Z,12.70
2018-08-23T04:08:12.707Z,12.53
2018-08-23T04:10:42.402Z,13.43
2018-08-23T04:13:11.543Z,13.37
2018-08-23T04:15:40.689Z,12.18
2018-08-23T04:18:16.165Z,12.50
2018-08-23T04:20:58.078Z,14.33
2018-08-23T04:23:27.215Z,11.23
2018-08-23T04:25:56.423Z,14.33
2018-08-23T04:28:25.567Z,12.70
2018-08-23T04:30:54.703Z,11.57
2018-08-23T04:33:23.856Z,14.33
2018-08-23T04:35:52.995Z,13.37
2018-08-23T04:38:22.148Z,12.30
2018-08-23T04:40:58.488Z,11.00
2018-08-23T04:43:27.639Z,11.90
2018-08-23T04:45:56.786Z,16.20
2018-08-23T04:48:25.935Z,12.37
2018-08-23T04:50:55.073Z,13.10
2018-08-23T04:53:24.214Z,14.33
2018-08-23T04:55:53.354Z,11.70
2018-08-23T04:58:22.497Z,14.20
2018-08-23T05:00:51.630Z,13.07
2018-08-23T05:03:20.806Z,12.03
2018-08-23T05:05:49.922Z,14.75
2018-08-23T05:08:19.065Z,12.30
2018-08-23T05:10:48.216Z,11.38
2018-08-23T05:13:17.382Z,13.33
2018-08-23T05:15:46.518Z,12.77
2018-08-23T05:18:15.703Z,12.30
2018-08-23T05:20:44.842Z,11.93
2018-08-23T05:23:14.902Z,12.58
2018-08-23T05:25:43.934Z,13.23
2018-08-23T05:28:18.718Z,14.50
2018-08-23T05:30:48.593Z,12.67
2018-08-23T05:33:19.958Z,11.80
2018-08-23T05:35:49.161Z,12.80
2018-08-23T05:38:19.471Z,13.35
2018-08-23T05:40:56.810Z,13.78
2018-08-23T05:43:25.954Z,13.73
2018-08-23T05:45:57.013Z,13.43
2018-08-23T05:48:32.251Z,13.38
2018-08-23T05:51:11.885Z,15.73
2018-08-23T05:53:53.186Z,13.77
2018-08-23T05:56:22.342Z,11.40
2018-08-23T05:58:51.765Z,15.97
2018-08-23T06:01:20.906Z,14.20
2018-08-23T06:03:50.055Z,14.50
2018-08-23T06:06:19.197Z,12.37
2018-08-23T06:08:51.327Z,15.77
2018-08-23T06:11:20.694Z,12.80
2018-08-23T06:13:49.829Z,12.90
2018-08-23T06:16:19.116Z,13.83
2018-08-23T06:18:48.268Z,15.80
2018-08-23T06:21:17.398Z,13.63
2018-08-23T06:23:53.442Z,13.30
2018-08-23T06:26:40.483Z,14.13
2018-08-23T06:29:12.479Z,12.23
2018-08-23T06:32:05.991Z,13.35
2018-08-23T06:34:37.079Z,14.30
2018-08-23T06:37:06.246Z,15.87
2018-08-23T06:39:35.393Z,14.65
2018-08-23T06:42:04.862Z,17.47
2018-08-23T06:44:44.820Z,16.13
2018-08-23T06:47:15.455Z,13.23
2018-08-23T06:49:45.867Z,14.30
2018-08-23T06:52:22.606Z,16.37
2018-08-23T06:54:51.761Z,12.03
2018-08-23T06:57:20.895Z,15.97
2018-08-23T06:59:50.043Z,15.67
2018-08-23T07:02:19.181Z,12.30
2018-08-23T07:04:48.343Z,12.60
2018-08-23T07:07:19.292Z,12.73
2018-08-23T07:09:48.433Z,19.00
2018-08-23T07:12:18.503Z,14.03
2018-08-23T07:14:48.802Z,12.10
2018-08-23T07:17:23.192Z,12.70
2018-08-23T07:19:52.550Z,15.93
2018-08-23T07:22:24.790Z,13.20
2018-08-23T07:24:55.235Z,12.57
2018-08-23T07:27:24.450Z,17.10
2018-08-23T07:29:55.824Z,11.47
2018-08-23T07:32:26.205Z,14.23
2018-08-23T07:35:03.182Z,11.00
2018-08-23T07:37:33.598Z,12.03
2018-08-23T07:40:08.120Z,9.93
2018-08-23T07:42:38.137Z,15.70
2018-08-23T07:45:08.374Z,13.63
2018-08-23T07:47:41.043Z,12.50
2018-08-23T07:50:10.229Z,18.10
2018-08-23T07:52:41.831Z,11.53
2018-08-23T07:55:10.978Z,10.65
2018-08-23T07:57:40.619Z,11.60
2018-08-23T08:00:25.671Z,10.80
2018-08-23T08:02:54.833Z,11.03
2018-08-23T08:05:28.470Z,10.27
2018-08-23T08:07:59.801Z,9.23
2018-08-23T08:10:40.585Z,11.30
2018-08-23T08:13:09.738Z,13.27
2018-08-23T08:15:38.865Z,9.67
2018-08-23T08:18:16.817Z,9.70
2018-08-23T08:20:51.924Z,14.40
2018-08-23T08:23:21.018Z,10.43
2018-08-23T08:25:50.193Z,13.90
2018-08-23T08:28:19.636Z,9.53
2018-08-23T08:30:53.241Z,11.70
2018-08-23T08:33:23.045Z,11.12
2018-08-23T08:35:56.944Z,11.23
2018-08-23T08:38:26.093Z,12.80
2018-08-23T08:40:55.234Z,10.87
2018-08-23T08:43:24.746Z,9.07
2018-08-23T08:45:54.549Z,10.23
2018-08-23T08:48:31.067Z,14.33
2018-08-23T08:51:21.009Z,13.60
2018-08-23T08:53:50.220Z,12.63
2018-08-23T08:56:23.968Z,12.57
2018-08-23T08:58:53.134Z,12.60
2018-08-23T09:01:22.275Z,11.47
2018-08-23T09:03:51.448Z,9.55
2018-08-23T09:06:29.119Z,11.40
2018-08-23T09:08:58.303Z,19.57
2018-08-23T09:11:28.791Z,13.43
2018-08-23T09:14:01.935Z,10.97
2018-08-23T09:16:31.078Z,9.43
2018-08-23T09:19:04.924Z,8.57
2018-08-23T09:21:34.339Z,11.53
2018-08-23T09:24:25.329Z,9.27
2018-08-23T09:26:55.143Z,6.50
2018-08-23T09:29:36.124Z,6.93
2018-08-23T09:32:13.430Z,5.70
2018-08-23T09:34:42.816Z,6.33
2018-08-23T09:37:11.994Z,8.80
2018-08-23T09:39:41.411Z,6.57
2018-08-23T09:42:11.618Z,5.65
2018-08-23T09:44:59.869Z,5.62
2018-08-23T09:47:29.790Z,6.67
2018-08-23T09:49:59.970Z,7.85
2018-08-23T09:52:31.460Z,7.67
2018-08-23T09:55:00.618Z,4.67
2018-08-23T09:57:29.807Z,7.47
2018-08-23T09:59:58.955Z,4.72
2018-08-23T10:02:33.338Z,7.97
2018-08-23T10:05:04.423Z,6.57
2018-08-23T10:07:39.061Z,6.55
2018-08-23T10:10:13.446Z,5.37
2018-08-23T10:12:47.961Z,5.03
2018-08-23T10:16:20.014Z,6.30
2018-08-23T10:18:50.992Z,8.00
2018-08-23T10:21:26.173Z,7.44
2018-08-23T10:24:12.410Z,7.60
2018-08-23T10:26:41.581Z,5.97
2018-08-23T10:29:10.715Z,4.90
2018-08-23T10:31:39.978Z,6.17
2018-08-23T10:34:09.118Z,5.10
2018-08-23T10:36:38.257Z,6.63
2018-08-23T10:39:11.126Z,8.07
2018-08-23T10:41:40.346Z,6.90
2018-08-23T10:44:09.504Z,8.33
2018-08-23T10:46:44.854Z,6.72
2018-08-23T10:49:13.982Z,7.07
2018-08-23T10:51:43.154Z,6.60
2018-08-23T10:54:12.290Z,5.40
2018-08-23T10:56:41.570Z,8.33
2018-08-23T10:59:10.802Z,7.53
2018-08-23T11:01:39.863Z,6.83
2018-08-23T11:04:09.902Z,7.23
2018-08-23T11:06:44.248Z,9.27
2018-08-23T11:09:18.645Z,9.20
2018-08-23T11:11:47.799Z,7.20
2018-08-23T11:14:22.138Z,8.40
2018-08-23T11:16:58.084Z,6.47
2018-08-23T11:19:32.451Z,7.10
2018-08-23T11:22:01.591Z,8.43
2018-08-23T11:24:30.717Z,6.30
2018-08-23T11:26:59.861Z,8.40
2018-08-23T11:29:29.002Z,8.75
2018-08-23T11:31:58.139Z,8.40
2018-08-23T11:34:27.272Z,7.13
2018-08-23T11:36:56.515Z,5.60
2018-08-23T11:39:25.651Z,7.33
2018-08-23T11:41:54.791Z,9.73
2018-08-23T11:44:23.950Z,7.83
2018-08-23T11:46:53.101Z,7.60
2018-08-23T11:49:22.236Z,13.47
2018-08-23T11:51:51.379Z,11.10
2018-08-23T11:54:20.520Z,19.10
2018-08-23T11:56:49.677Z,12.83
2018-08-23T11:59:18.811Z,14.25
2018-08-23T12:01:47.989Z,16.63
2018-08-23T12:04:17.127Z,23.60
2018-08-23T12:06:46.269Z,16.62
2018-08-23T12:09:15.406Z,9.13
2018-08-23T12:11:44.557Z,13.00
2018-08-23T12:14:13.717Z,9.10
2018-08-23T12:16:42.977Z,6.87
2018-08-23T12:19:12.126Z,8.77
2018-08-23T12:21:42.054Z,5.42
2018-08-23T12:24:12.068Z,6.72
2018-08-23T12:26:42.127Z,5.90
2018-08-23T12:29:13.283Z,5.90
2018-08-23T12:31:42.511Z,7.50
2018-08-23T12:34:12.279Z,7.83
2018-08-23T12:36:47.596Z,9.33
2018-08-23T12:39:22.149Z,6.67
2018-08-23T12:41:56.623Z,11.60
2018-08-23T12:44:25.784Z,8.80
2018-08-23T12:47:04.138Z,9.00
2018-08-23T12:49:33.293Z,9.90
2018-08-23T12:52:02.460Z,12.82
2018-08-23T12:54:31.605Z,9.20
2018-08-23T12:57:00.745Z,8.27
2018-08-23T12:59:29.897Z,15.67
2018-08-23T13:01:59.378Z,10.80
2018-08-23T13:04:28.427Z,11.33
2018-08-23T13:06:57.567Z,15.73
2018-08-23T13:09:26.727Z,17.13
2018-08-23T13:11:55.862Z,20.07
2018-08-23T13:14:25.054Z,16.13
2018-08-23T13:16:54.252Z,13.20
2018-08-23T13:19:23.403Z,12.10
2018-08-23T13:21:58.165Z,7.45
2018-08-23T13:24:27.191Z,9.23
2018-08-23T13:26:56.347Z,9.60
2018-08-23T13:29:26.107Z,8.87
2018-08-23T13:31:55.617Z,10.03
2018-08-23T13:34:24.753Z,8.80
2018-08-23T13:36:53.907Z,5.77
2018-08-23T13:39:23.351Z,8.88
2018-08-23T13:48:00.082Z,5.60
2018-08-23T13:50:29.227Z,6.77
2018-08-23T13:52:58.358Z,7.28
2018-08-23T13:55:27.503Z,7.97
2018-08-23T13:57:56.711Z,6.17
2018-08-23T14:00:31.078Z,7.90
2018-08-23T14:03:00.523Z,5.27
2018-08-23T14:05:29.706Z,6.77
2018-08-23T14:07:58.838Z,9.30
2018-08-23T14:10:28.402Z,10.00
2018-08-23T14:12:58.561Z,7.33
2018-08-23T14:15:32.791Z,9.40
2018-08-23T14:18:02.012Z,7.20
2018-08-23T14:20:31.164Z,8.97
2018-08-23T14:23:00.299Z,7.80
2018-08-23T14:25:29.437Z,8.53
2018-08-23T14:27:59.307Z,11.22
2018-08-23T14:30:30.486Z,10.48
2018-08-23T14:32:59.698Z,10.00
2018-08-23T14:35:29.575Z,8.58
2018-08-23T14:37:59.688Z,11.68
2018-08-23T14:40:29.774Z,11.00
2018-08-23T14:42:59.831Z,11.14
2018-08-23T14:45:30.552Z,11.83
2018-08-23T14:48:05.114Z,10.93
2018-08-23T14:50:35.269Z,11.63
2018-08-23T14:53:05.275Z,12.47
2018-08-23T14:55:39.628Z,11.40
2018-08-23T14:58:09.501Z,15.10
2018-08-23T15:00:38.647Z,11.28
2018-08-23T15:03:07.835Z,13.33
2018-08-23T15:05:36.981Z,11.70
2018-08-23T15:08:06.167Z,12.50
2018-08-23T15:10:35.275Z,10.73
2018-08-23T15:13:04.419Z,8.30
2018-08-23T15:15:38.791Z,11.00
2018-08-23T15:18:07.925Z,10.63
2018-08-23T15:20:37.121Z,12.80
2018-08-23T15:23:06.698Z,10.77
2018-08-23T15:25:35.855Z,11.13
2018-08-23T15:28:05.279Z,10.35
2018-08-23T15:30:34.445Z,10.05
2018-08-23T15:33:03.596Z,11.57
2018-08-23T15:35:32.730Z,9.37
2018-08-23T15:38:01.954Z,9.13
2018-08-23T15:40:31.111Z,8.57
2018-08-23T15:43:00.266Z,9.53
2018-08-23T15:45:29.642Z,7.58
2018-08-23T15:47:58.831Z,7.53
2018-08-23T15:50:28.759Z,7.40
2018-08-23T15:52:58.866Z,7.30
2018-08-23T15:55:29.185Z,6.62
2018-08-23T15:57:58.993Z,9.03
2018-08-23T16:00:33.218Z,7.37
2018-08-23T16:03:02.350Z,7.13
2018-08-23T16:05:31.512Z,6.93
2018-08-23T16:08:00.642Z,6.80
2018-08-23T16:10:29.871Z,7.80
2018-08-23T16:12:59.524Z,8.18
2018-08-23T16:15:29.894Z,6.70
2018-08-23T16:18:04.894Z,8.60
2018-08-23T16:20:39.402Z,8.15
2018-08-23T16:23:08.539Z,7.53
2018-08-23T16:25:41.686Z,7.53
2018-08-23T16:28:10.942Z,9.23
2018-08-23T16:30:40.914Z,7.33
2018-08-23T16:33:10.588Z,6.93
2018-08-23T16:35:39.779Z,6.33
2018-08-23T16:38:09.033Z,10.47
2018-08-23T16:40:38.171Z,8.80
2018-08-23T16:43:07.430Z,7.10
2018-08-23T16:45:36.564Z,7.80
2018-08-23T16:48:05.703Z,7.00
2018-08-23T16:50:34.830Z,8.03
2018-08-23T16:53:04.022Z,7.40
2018-08-23T16:55:33.112Z,8.07
2018-08-23T16:58:02.252Z,9.93
2018-08-23T17:00:31.386Z,7.03
2018-08-23T17:03:00.521Z,8.17
2018-08-23T17:05:29.650Z,9.80
2018-08-23T17:07:58.794Z,8.00
2018-08-23T17:10:27.926Z,7.20
2018-08-23T17:12:57.087Z,9.20
2018-08-23T17:15:30.307Z,6.63
2018-08-23T17:17:59.608Z,8.87
2018-08-23T17:20:28.733Z,7.30
2018-08-23T17:22:59.211Z,8.63
2018-08-23T17:25:28.358Z,10.10
2018-08-23T17:27:57.498Z,8.33
2018-08-23T17:30:26.635Z,8.10
2018-08-23T17:32:55.775Z,8.40
2018-08-23T17:35:24.903Z,9.00
2018-08-23T17:37:54.042Z,9.47
2018-08-23T17:40:23.198Z,8.57
2018-08-23T17:42:52.352Z,8.30
2018-08-23T17:45:21.490Z,8.47
2018-08-23T17:47:50.715Z,9.43
2018-08-23T17:50:19.864Z,11.57
2018-08-23T17:52:48.995Z,9.33
2018-08-23T17:55:18.152Z,8.45
2018-08-23T17:57:47.307Z,9.10
2018-08-23T18:00:16.448Z,7.15
2018-08-23T18:02:45.660Z,10.75
2018-08-23T18:05:14.767Z,9.77
2018-08-23T18:07:43.930Z,10.20
2018-08-23T18:10:13.846Z,8.53
2018-08-23T18:12:43.918Z,8.87
2018-08-23T18:15:14.116Z,9.88
2018-08-23T18:17:44.163Z,7.47
2018-08-23T18:20:14.258Z,9.58
2018-08-23T18:22:44.921Z,9.65
2018-08-23T18:25:14.472Z,9.90
2018-08-23T18:27:44.486Z,10.72
2018-08-23T18:30:14.611Z,9.70
2018-08-23T18:32:44.662Z,8.85
2018-08-23T18:35:14.739Z,10.80
2018-08-23T18:37:45.992Z,9.78
2018-08-23T18:40:15.135Z,12.13
2018-08-23T18:42:44.353Z,10.10
2018-08-23T18:45:13.503Z,8.43
2018-08-23T18:47:42.938Z,7.97
2018-08-23T18:50:12.091Z,10.43
2018-08-23T18:52:41.327Z,9.50
2018-08-23T18:55:10.486Z,11.57
2018-08-23T18:57:39.626Z,8.97
2018-08-23T19:00:08.913Z,10.77
2018-08-23T19:02:37.923Z,11.07
2018-08-23T19:05:07.078Z,9.00
2018-08-23T19:07:43.185Z,9.77
2018-08-23T19:10:12.878Z,8.33
2018-08-23T19:12:42.050Z,9.63
2018-08-23T19:15:11.179Z,9.17
2018-08-23T19:17:41.493Z,10.40
2018-08-23T19:20:11.939Z,9.50
2018-08-23T19:22:41.092Z,10.07
2018-08-23T19:25:10.999Z,10.43
2018-08-23T19:27:40.074Z,11.50
2018-08-23T19:30:09.945Z,10.30
2018-08-23T19:32:39.257Z,9.17
2018-08-23T19:35:08.411Z,10.37
2018-08-23T19:37:37.547Z,8.43
2018-08-23T19:40:06.704Z,8.90
2018-08-23T19:42:35.874Z,9.87
2018-08-23T19:45:05.183Z,13.37
2018-08-23T19:47:39.452Z,12.50
2018-08-23T19:50:09.694Z,11.03
2018-08-23T19:52:38.850Z,11.23
2018-08-23T19:55:09.932Z,9.80
2018-08-23T19:57:39.324Z,9.67
2018-08-23T20:00:10.082Z,8.63
2018-08-23T20:02:39.210Z,9.13
2018-08-23T20:05:08.360Z,12.17
2018-08-23T20:07:37.498Z,9.63
2018-08-23T20:10:06.846Z,10.50
2018-08-23T20:12:35.999Z,9.10
2018-08-23T20:15:05.196Z,9.07
2018-08-23T20:17:34.350Z,9.50
2018-08-23T20:20:03.498Z,11.77
2018-08-23T20:22:32.640Z,9.90
2018-08-23T20:25:01.856Z,14.25
2018-08-23T20:27:30.936Z,10.07
2018-08-23T20:30:00.092Z,10.00
2018-08-23T20:32:29.226Z,9.47
2018-08-23T20:34:58.434Z,13.50
2018-08-23T20:37:27.574Z,9.80
2018-08-23T20:39:56.718Z,11.88
2018-08-23T20:42:25.855Z,9.33
2018-08-23T20:44:55.008Z,9.97
2018-08-23T20:47:24.142Z,10.07
2018-08-23T20:49:53.282Z,9.63
2018-08-23T20:52:22.841Z,10.05
2018-08-23T20:54:52.882Z,12.13
2018-08-23T20:57:22.986Z,11.75
2018-08-23T20:59:53.114Z,12.53
2018-08-23T21:02:23.239Z,10.40
2018-08-23T21:04:53.250Z,10.15
2018-08-23T21:07:23.377Z,11.55
2018-08-23T21:09:53.566Z,12.18
2018-08-23T21:12:23.547Z,12.30
2018-08-23T21:14:53.707Z,11.70
2018-08-23T21:17:23.071Z,8.83
2018-08-23T21:19:52.219Z,10.20
2018-08-23T21:22:21.362Z,9.53
2018-08-23T21:24:50.502Z,9.57
2018-08-23T21:27:19.637Z,8.47
2018-08-23T21:29:48.829Z,10.47
2018-08-23T21:32:18.012Z,10.03
2018-08-23T21:34:47.155Z,8.43
2018-08-23T21:37:16.282Z,10.00
2018-08-23T21:39:45.449Z,14.00
2018-08-23T21:42:14.606Z,13.63
2018-08-23T21:44:43.769Z,13.27
2018-08-23T21:47:12.930Z,12.47
2018-08-23T21:49:42.091Z,13.83
2018-08-23T21:52:11.239Z,10.70
2018-08-23T21:54:40.400Z,12.23
2018-08-23T21:57:09.535Z,13.40
2018-08-23T21:59:38.675Z,12.43
2018-08-23T22:02:13.113Z,10.70
2018-08-23T22:04:47.691Z,11.77
2018-08-23T22:07:17.071Z,9.73
2018-08-23T22:09:50.181Z,11.60
2018-08-23T22:12:21.756Z,13.87
2018-08-23T22:14:52.141Z,9.90
2018-08-23T22:17:21.750Z,11.90
2018-08-23T22:19:51.774Z,10.80
2018-08-23T22:22:21.071Z,10.87
2018-08-23T22:24:50.226Z,10.20
2018-08-23T22:27:19.379Z,11.27
2018-08-23T22:29:48.527Z,9.87
2018-08-23T22:32:17.686Z,10.03
2018-08-23T22:34:46.822Z,14.67
2018-08-23T22:37:15.962Z,9.30
2018-08-23T22:39:45.108Z,10.78
2018-08-23T22:42:14.266Z,89.60
2018-08-23T22:44:43.411Z,149.00
2018-08-23T22:47:12.558Z,98.43
2018-08-23T22:49:41.722Z,29.10
2018-08-23T22:52:10.854Z,33.10
2018-08-23T22:54:39.990Z,33.55
2018-08-23T22:57:09.151Z,52.63
2018-08-23T22:59:38.298Z,53.80
2018-08-23T23:02:07.463Z,26.90
2018-08-23T23:04:36.646Z,28.13
2018-08-23T23:07:08.278Z,14.27
2018-08-23T23:09:37.433Z,14.87
2018-08-23T23:12:07.046Z,8.73
2018-08-23T23:14:36.443Z,8.80
2018-08-23T23:17:07.029Z,10.80
2018-08-23T23:19:36.507Z,10.40
2018-08-23T23:22:06.995Z,11.48
2018-08-23T23:24:42.112Z,9.55
2018-08-23T23:27:11.263Z,9.83
2018-08-23T23:29:40.411Z,10.70
2018-08-23T23:32:09.558Z,8.77
2018-08-23T23:34:39.626Z,12.30
2018-08-23T23:37:09.645Z,8.60
2018-08-23T23:39:39.771Z,12.88
2018-08-23T23:42:09.810Z,9.00
2018-08-23T23:44:39.921Z,8.18
2018-08-23T23:47:09.865Z,7.62
2018-08-23T23:49:39.966Z,11.93
2018-08-23T23:52:11.070Z,9.34
2018-08-23T23:54:40.215Z,8.17
2018-08-23T23:57:10.053Z,8.43
2018-08-23T23:59:40.210Z,7.35
